MOL Commitment — V7AZ4 — position and weather

sailwx.info

Track history (hours):
 
Tides and Currents Weather Stations Pressure Air Temp Water Temp Dewpoint Dewpoint Depression Visibility Wind Speed Wind Dir Waves Ship Positions

MOL Commitment

Last reported at 2018-Jun-04 06:55 UTC. Time now 2018-Jun-21 09:57 UTC.
Position N 22°20' E 114°07'.
Warning: this ship's position is 17 days out of date.

Length 316 m; draft 8 m.

Type: Ship (hazmat cat A). MMSI: 538005100.

Date/timePositionNaut miles runAvg speedWind from/ knotsBaromVisibWave heightAir tempDewpointWater temp
2018-Jun-04 06:55N 22°20' E 114°07'344 9.6
2018-Jun-02 19:12N 22°34' E 120°19'0 0.1
2018-Jun-02 18:49N 22°34' E 120°19'0 0.0
2018-Jun-02 18:25N 22°34' E 120°19'0 0.0
2018-Jun-02 17:49N 22°34' E 120°19'0 0.0
2018-Jun-02 17:19N 22°34' E 120°19'0 0.0
2018-Jun-02 16:55N 22°34' E 120°19'0 0.0
2018-Jun-02 16:19N 22°34' E 120°19'0 0.0
2018-Jun-02 15:55N 22°34' E 120°19'0 0.0
2018-Jun-02 15:25N 22°34' E 120°19'0 0.0
2018-Jun-02 14:49N 22°34' E 120°19'0 0.0
2018-Jun-02 14:25N 22°34' E 120°19'0 0.0
2018-Jun-02 13:55N 22°34' E 120°19'0 0.0
2018-Jun-02 13:13N 22°34' E 120°19'0 0.0
2018-Jun-02 12:55N 22°34' E 120°19'0 0.0
2018-Jun-02 12:29N 22°34' E 120°19'1 1.5
2018-Jun-02 12:01N 22°33' E 120°19'4 8.5
2018-Jun-02 11:30N 22°31' E 120°14'2 3.6
2018-Jun-02 10:49N 22°30' E 120°12'1 2.5
2018-Jun-02 10:25N 22°31' E 120°12'1 2.3
2018-Jun-02 09:55N 22°32' E 120°12'1 2.4
2018-Jun-02 09:30N 22°33' E 120°11'2 4.3
2018-Jun-02 09:00N 22°34' E 120°09'4 7.7
2018-Jun-02 08:29N 22°37' E 120°07'4 7.7
2018-Jun-02 08:00N 22°40' E 120°04'4 7.7
2018-Jun-02 07:31N 22°43' E 120°01'4 7.3
2018-Jun-02 07:00N 22°46' E 119°60'4 8.3
2018-Jun-02 06:30N 22°50' E 119°58'  
2018-May-29 07:12N 34°53' E 139°20'517.8
2018-May-29 06:57N 34°55' E 139°24'817.6
2018-May-29 06:30N 34°60' E 139°32'917.7
2018-May-29 06:00N 35°05' E 139°41'816.0
2018-May-29 05:30N 35°12' E 139°46'611.3
2018-May-29 05:00N 35°17' E 139°45'612.7
2018-May-29 04:30N 35°23' E 139°43'714.3
2018-May-29 04:00N 35°28' E 139°49'510.9
2018-May-29 03:30N 35°34' E 139°49'3 6.7
2018-May-29 03:00N 35°36' E 139°47'0 0.1
2018-May-29 02:19N 35°36' E 139°47'0 0.0
2018-May-29 01:58N 35°36' E 139°47'0 0.0
2018-May-29 01:07N 35°36' E 139°47'0 0.0
2018-May-29 00:55N 35°36' E 139°47'0 0.0
2018-May-29 00:25N 35°36' E 139°47'0 0.0
2018-May-28 23:52N 35°36' E 139°47'0 0.0
2018-May-28 23:25N 35°36' E 139°47'0 0.0
2018-May-28 22:01N 35°36' E 139°47'0 0.0
2018-May-28 21:37N 35°36' E 139°47'0 0.0
2018-May-28 21:07N 35°36' E 139°47'0 0.0
2018-May-28 20:43N 35°36' E 139°47'0 0.0
2018-May-28 20:28N 35°36' E 139°47'0 0.0
2018-May-28 19:58N 35°36' E 139°47'0 0.0
2018-May-28 19:28N 35°36' E 139°47'0 0.0
2018-May-28 18:07N 35°36' E 139°47'0 0.0
2018-May-28 17:31N 35°36' E 139°47'0 0.0
2018-May-28 17:19N 35°36' E 139°47'0 0.0
2018-May-28 15:58N 35°36' E 139°47'0 0.0
2018-May-28 15:28N 35°36' E 139°47'0 0.0
2018-May-28 14:58N 35°36' E 139°47'0 0.0
2018-May-28 13:58N 35°36' E 139°47'0 0.0
2018-May-28 12:43N 35°36' E 139°47'0 0.0
2018-May-28 11:25N 35°36' E 139°47'0 0.0
2018-May-28 09:35N 35°36' E 139°47'0 0.5
2018-May-28 09:30N 35°36' E 139°47'4 7.1
2018-May-28 09:00N 35°34' E 139°50'510.0
2018-May-28 08:30N 35°29' E 139°51'713.2
2018-May-28 08:00N 35°25' E 139°45'4 7.6
2018-May-28 07:31N 35°24' E 139°41'0 0.4
2018-May-28 07:00N 35°24' E 139°41'0 0.0
2018-May-28 06:30N 35°24' E 139°41'0 0.0
2018-May-28 06:00N 35°24' E 139°41'0 0.0
2018-May-28 05:30N 35°24' E 139°41'0 0.0
2018-May-28 05:00N 35°24' E 139°41'0 0.0
2018-May-28 04:30N 35°24' E 139°41'0 0.0
2018-May-28 04:00N 35°24' E 139°41'0 0.0
2018-May-28 03:30N 35°24' E 139°41'0 0.0
2018-May-28 03:00N 35°24' E 139°41'0 0.0
2018-May-28 02:30N 35°24' E 139°41'0 0.0
2018-May-28 02:00N 35°24' E 139°41'0 0.0
2018-May-28 01:30N 35°24' E 139°41'0 0.0
2018-May-28 01:00N 35°24' E 139°41'0 0.0
2018-May-28 00:30N 35°24' E 139°41'0 0.0
2018-May-28 00:00N 35°24' E 139°41'0 0.0
2018-May-27 23:30N 35°24' E 139°41'0 0.0
2018-May-27 23:00N 35°24' E 139°41'2 3.5
2018-May-27 22:30N 35°22' E 139°41'611.6
2018-May-27 22:00N 35°17' E 139°45'611.6
2018-May-27 21:30N 35°12' E 139°47'4 8.2
2018-May-27 21:00N 35°08' E 139°45'4 7.6
2018-May-27 20:30N 35°05' E 139°43'510.4
2018-May-27 20:00N 35°01' E 139°38'611.5
2018-May-27 19:30N 34°57' E 139°33'611.9
2018-May-27 18:59N 34°54' E 139°27'511.5
2018-May-27 18:30N 34°50' E 139°21'219 6.8
2018-May-26 10:24N 33°43' E 135°09'615.9
2018-May-26 10:00N 33°47' E 135°04'815.2
2018-May-26 09:31N 33°54' E 134°59'714.8
2018-May-26 09:01N 34°01' E 134°57'714.7
2018-May-26 08:31N 34°08' E 134°58'713.5
2018-May-26 08:00N 34°15' E 134°58'816.6
2018-May-26 07:30N 34°23' E 135°01'917.7
2018-May-26 07:00N 34°29' E 135°08'917.4
2018-May-26 06:30N 34°36' E 135°15'4 3.7
2018-May-26 05:23N 34°40' E 135°14'0 0.0
2018-May-26 04:59N 34°40' E 135°14'0 0.0
2018-May-26 04:29N 34°40' E 135°14'0 0.0
2018-May-26 03:59N 34°40' E 135°14'0 0.0
2018-May-26 03:29N 34°40' E 135°14'0 0.0
2018-May-26 02:59N 34°40' E 135°14'0 0.0
2018-May-26 02:29N 34°40' E 135°14'0 0.0
2018-May-26 01:59N 34°40' E 135°14'0 0.1
2018-May-26 01:29N 34°40' E 135°14'0 0.1
2018-May-26 00:59N 34°40' E 135°14'0 0.0
2018-May-26 00:29N 34°40' E 135°14'0 0.0
2018-May-25 23:56N 34°40' E 135°14'0 0.1
2018-May-25 23:29N 34°40' E 135°14'0 0.1
2018-May-25 22:59N 34°40' E 135°14'0 0.0
2018-May-25 22:29N 34°40' E 135°14'1 1.2
2018-May-25 22:00N 34°40' E 135°15'510.6
2018-May-25 21:30N 34°38' E 135°21'2 3.8
2018-May-25 20:52N 34°39' E 135°24'0 0.0
2018-May-25 20:22N 34°39' E 135°24'0 0.0
2018-May-25 19:58N 34°39' E 135°24'0 0.0
2018-May-25 19:28N 34°39' E 135°24'0 0.0
2018-May-25 18:58N 34°39' E 135°24'0 0.0
2018-May-25 18:28N 34°39' E 135°24'0 0.0
2018-May-25 17:58N 34°39' E 135°24'0 0.0
2018-May-25 17:28N 34°39' E 135°24'0 0.0
2018-May-25 16:58N 34°39' E 135°24'0 0.0
2018-May-25 16:16N 34°39' E 135°24'0 0.0
2018-May-25 15:55N 34°39' E 135°24'0 0.0
2018-May-25 15:28N 34°39' E 135°24'0 0.0
2018-May-25 14:58N 34°39' E 135°24'0 0.0
2018-May-25 14:28N 34°39' E 135°24'0 0.0
2018-May-25 13:58N 34°39' E 135°24'0 0.0
2018-May-25 13:28N 34°39' E 135°24'0 0.0
2018-May-25 12:58N 34°39' E 135°24'0 0.0
2018-May-25 12:28N 34°39' E 135°24'0 0.0
2018-May-25 11:58N 34°39' E 135°24'0 0.0
2018-May-25 11:28N 34°39' E 135°24'0 0.0
2018-May-25 10:58N 34°39' E 135°24'0 0.0
2018-May-25 10:28N 34°39' E 135°24'0 0.0
2018-May-25 09:58N 34°39' E 135°24'0 0.0
2018-May-25 09:29N 34°39' E 135°24'0 0.4
2018-May-25 09:01N 34°39' E 135°24'4 7.3
2018-May-25 08:30N 34°36' E 135°20'611.4
2018-May-25 08:00N 34°33' E 135°15'714.7
2018-May-25 07:31N 34°27' E 135°09'815.9
2018-May-25 07:00N 34°21' E 135°03'  
Track history (hours):
 
Tides and Currents Weather Stations Pressure Air Temp Water Temp Dewpoint Dewpoint Depression Visibility Wind Speed Wind Dir Waves Ship Positions

MOL Commitment

Last reported at 2018-Jun-04 06:55 UTC. Time now 2018-Jun-21 09:57 UTC.
Position N 22°20' E 114°07'.
Warning: this ship's position is 17 days out of date.

Length 316 m; draft 8 m.

Type: Ship (hazmat cat A). MMSI: 538005100.

Date/timePositionNaut miles runAvg speedWind from/ knotsBaromVisibWave heightAir tempDewpointWater temp
2018-Jun-04 06:55N 22°20' E 114°07'344 9.6
2018-Jun-02 19:12N 22°34' E 120°19'0 0.1
2018-Jun-02 18:49N 22°34' E 120°19'0 0.0
2018-Jun-02 18:25N 22°34' E 120°19'0 0.0
2018-Jun-02 17:49N 22°34' E 120°19'0 0.0
2018-Jun-02 17:19N 22°34' E 120°19'0 0.0
2018-Jun-02 16:55N 22°34' E 120°19'0 0.0
2018-Jun-02 16:19N 22°34' E 120°19'0 0.0
2018-Jun-02 15:55N 22°34' E 120°19'0 0.0
2018-Jun-02 15:25N 22°34' E 120°19'0 0.0
2018-Jun-02 14:49N 22°34' E 120°19'0 0.0
2018-Jun-02 14:25N 22°34' E 120°19'0 0.0
2018-Jun-02 13:55N 22°34' E 120°19'0 0.0
2018-Jun-02 13:13N 22°34' E 120°19'0 0.0
2018-Jun-02 12:55N 22°34' E 120°19'0 0.0
2018-Jun-02 12:29N 22°34' E 120°19'1 1.5
2018-Jun-02 12:01N 22°33' E 120°19'4 8.5
2018-Jun-02 11:30N 22°31' E 120°14'2 3.6
2018-Jun-02 10:49N 22°30' E 120°12'1 2.5
2018-Jun-02 10:25N 22°31' E 120°12'1 2.3
2018-Jun-02 09:55N 22°32' E 120°12'1 2.4
2018-Jun-02 09:30N 22°33' E 120°11'2 4.3
2018-Jun-02 09:00N 22°34' E 120°09'4 7.7
2018-Jun-02 08:29N 22°37' E 120°07'4 7.7
2018-Jun-02 08:00N 22°40' E 120°04'4 7.7
2018-Jun-02 07:31N 22°43' E 120°01'4 7.3
2018-Jun-02 07:00N 22°46' E 119°60'4 8.3
2018-Jun-02 06:30N 22°50' E 119°58'  
2018-May-29 07:12N 34°53' E 139°20'517.8
2018-May-29 06:57N 34°55' E 139°24'817.6
2018-May-29 06:30N 34°60' E 139°32'917.7
2018-May-29 06:00N 35°05' E 139°41'816.0
2018-May-29 05:30N 35°12' E 139°46'611.3
2018-May-29 05:00N 35°17' E 139°45'612.7
2018-May-29 04:30N 35°23' E 139°43'714.3
2018-May-29 04:00N 35°28' E 139°49'510.9
2018-May-29 03:30N 35°34' E 139°49'3 6.7
2018-May-29 03:00N 35°36' E 139°47'0 0.1
2018-May-29 02:19N 35°36' E 139°47'0 0.0
2018-May-29 01:58N 35°36' E 139°47'0 0.0
2018-May-29 01:07N 35°36' E 139°47'0 0.0
2018-May-29 00:55N 35°36' E 139°47'0 0.0
2018-May-29 00:25N 35°36' E 139°47'0 0.0
2018-May-28 23:52N 35°36' E 139°47'0 0.0
2018-May-28 23:25N 35°36' E 139°47'0 0.0
2018-May-28 22:01N 35°36' E 139°47'0 0.0
2018-May-28 21:37N 35°36' E 139°47'0 0.0
2018-May-28 21:07N 35°36' E 139°47'0 0.0
2018-May-28 20:43N 35°36' E 139°47'0 0.0
2018-May-28 20:28N 35°36' E 139°47'0 0.0
2018-May-28 19:58N 35°36' E 139°47'0 0.0
2018-May-28 19:28N 35°36' E 139°47'0 0.0
2018-May-28 18:07N 35°36' E 139°47'0 0.0
2018-May-28 17:31N 35°36' E 139°47'0 0.0
2018-May-28 17:19N 35°36' E 139°47'0 0.0
2018-May-28 15:58N 35°36' E 139°47'0 0.0
2018-May-28 15:28N 35°36' E 139°47'0 0.0
2018-May-28 14:58N 35°36' E 139°47'0 0.0
2018-May-28 13:58N 35°36' E 139°47'0 0.0
2018-May-28 12:43N 35°36' E 139°47'0 0.0
2018-May-28 11:25N 35°36' E 139°47'0 0.0
2018-May-28 09:35N 35°36' E 139°47'0 0.5
2018-May-28 09:30N 35°36' E 139°47'4 7.1
2018-May-28 09:00N 35°34' E 139°50'510.0
2018-May-28 08:30N 35°29' E 139°51'713.2
2018-May-28 08:00N 35°25' E 139°45'4 7.6
2018-May-28 07:31N 35°24' E 139°41'0 0.4
2018-May-28 07:00N 35°24' E 139°41'0 0.0
2018-May-28 06:30N 35°24' E 139°41'0 0.0
2018-May-28 06:00N 35°24' E 139°41'0 0.0
2018-May-28 05:30N 35°24' E 139°41'0 0.0
2018-May-28 05:00N 35°24' E 139°41'0 0.0
2018-May-28 04:30N 35°24' E 139°41'0 0.0
2018-May-28 04:00N 35°24' E 139°41'0 0.0
2018-May-28 03:30N 35°24' E 139°41'0 0.0
2018-May-28 03:00N 35°24' E 139°41'0 0.0
2018-May-28 02:30N 35°24' E 139°41'0 0.0
2018-May-28 02:00N 35°24' E 139°41'0 0.0
2018-May-28 01:30N 35°24' E 139°41'0 0.0
2018-May-28 01:00N 35°24' E 139°41'0 0.0
2018-May-28 00:30N 35°24' E 139°41'0 0.0
2018-May-28 00:00N 35°24' E 139°41'0 0.0
2018-May-27 23:30N 35°24' E 139°41'0 0.0
2018-May-27 23:00N 35°24' E 139°41'2 3.5
2018-May-27 22:30N 35°22' E 139°41'611.6
2018-May-27 22:00N 35°17' E 139°45'611.6
2018-May-27 21:30N 35°12' E 139°47'4 8.2
2018-May-27 21:00N 35°08' E 139°45'4 7.6
2018-May-27 20:30N 35°05' E 139°43'510.4
2018-May-27 20:00N 35°01' E 139°38'611.5
2018-May-27 19:30N 34°57' E 139°33'611.9
2018-May-27 18:59N 34°54' E 139°27'511.5
2018-May-27 18:30N 34°50' E 139°21'219 6.8
2018-May-26 10:24N 33°43' E 135°09'615.9
2018-May-26 10:00N 33°47' E 135°04'815.2
2018-May-26 09:31N 33°54' E 134°59'714.8
2018-May-26 09:01N 34°01' E 134°57'714.7
2018-May-26 08:31N 34°08' E 134°58'713.5
2018-May-26 08:00N 34°15' E 134°58'816.6
2018-May-26 07:30N 34°23' E 135°01'917.7
2018-May-26 07:00N 34°29' E 135°08'917.4
2018-May-26 06:30N 34°36' E 135°15'4 3.7
2018-May-26 05:23N 34°40' E 135°14'0 0.0
2018-May-26 04:59N 34°40' E 135°14'0 0.0
2018-May-26 04:29N 34°40' E 135°14'0 0.0
2018-May-26 03:59N 34°40' E 135°14'0 0.0
2018-May-26 03:29N 34°40' E 135°14'0 0.0
2018-May-26 02:59N 34°40' E 135°14'0 0.0
2018-May-26 02:29N 34°40' E 135°14'0 0.0
2018-May-26 01:59N 34°40' E 135°14'0 0.1
2018-May-26 01:29N 34°40' E 135°14'0 0.1
2018-May-26 00:59N 34°40' E 135°14'0 0.0
2018-May-26 00:29N 34°40' E 135°14'0 0.0
2018-May-25 23:56N 34°40' E 135°14'0 0.1
2018-May-25 23:29N 34°40' E 135°14'0 0.1
2018-May-25 22:59N 34°40' E 135°14'0 0.0
2018-May-25 22:29N 34°40' E 135°14'1 1.2
2018-May-25 22:00N 34°40' E 135°15'510.6
2018-May-25 21:30N 34°38' E 135°21'2 3.8
2018-May-25 20:52N 34°39' E 135°24'0 0.0
2018-May-25 20:22N 34°39' E 135°24'0 0.0
2018-May-25 19:58N 34°39' E 135°24'0 0.0
2018-May-25 19:28N 34°39' E 135°24'0 0.0
2018-May-25 18:58N 34°39' E 135°24'0 0.0
2018-May-25 18:28N 34°39' E 135°24'0 0.0
2018-May-25 17:58N 34°39' E 135°24'0 0.0
2018-May-25 17:28N 34°39' E 135°24'0 0.0
2018-May-25 16:58N 34°39' E 135°24'0 0.0
2018-May-25 16:16N 34°39' E 135°24'0 0.0
2018-May-25 15:55N 34°39' E 135°24'0 0.0
2018-May-25 15:28N 34°39' E 135°24'0 0.0
2018-May-25 14:58N 34°39' E 135°24'0 0.0
2018-May-25 14:28N 34°39' E 135°24'0 0.0
2018-May-25 13:58N 34°39' E 135°24'0 0.0
2018-May-25 13:28N 34°39' E 135°24'0 0.0
2018-May-25 12:58N 34°39' E 135°24'0 0.0
2018-May-25 12:28N 34°39' E 135°24'0 0.0
2018-May-25 11:58N 34°39' E 135°24'0 0.0
2018-May-25 11:28N 34°39' E 135°24'0 0.0
2018-May-25 10:58N 34°39' E 135°24'0 0.0
2018-May-25 10:28N 34°39' E 135°24'0 0.0
2018-May-25 09:58N 34°39' E 135°24'0 0.0
2018-May-25 09:29N 34°39' E 135°24'0 0.4
2018-May-25 09:01N 34°39' E 135°24'4 7.3
2018-May-25 08:30N 34°36' E 135°20'611.4
2018-May-25 08:00N 34°33' E 135°15'714.7
2018-May-25 07:31N 34°27' E 135°09'815.9
2018-May-25 07:00N 34°21' E 135°03'  

Dump ship's entire track history